Time;durP1;ratioP1;P1;durP2;ratioP2;P2;SDS_P1;SDS_P2;PMS_P1;PMS_P2;Temp;Humidity;BMP_temperature;BMP_pressure;BME280_temperature;BME280_humidity;BME280_pressure;Samples;Min_cycle;Max_cycle;Signal;HPM_P1;HPM_P2
2023/09/05 00:00:04;;;;;;;2.63;2.43;;;15.00;99.90;;;;;;5017502;28;20319;-54
2023/09/05 00:02:33;;;;;;;2.30;2.10;;;15.00;99.90;;;;;;5020189;28;20196;-56
2023/09/05 00:04:59;;;;;;;2.80;2.13;;;14.90;99.90;;;;;;5035207;28;20253;-54
2023/09/05 00:07:29;;;;;;;2.50;2.30;;;15.00;99.90;;;;;;5034897;28;20207;-50
2023/09/05 00:09:58;;;;;;;2.67;2.47;;;15.10;99.90;;;;;;5013162;28;20214;-48
2023/09/05 00:12:27;;;;;;;2.20;2.10;;;15.10;99.90;;;;;;5019400;28;20821;-51
2023/09/05 00:14:55;;;;;;;2.47;2.27;;;15.10;99.90;;;;;;5016308;28;20200;-53
2023/09/05 00:17:21;;;;;;;2.90;2.70;;;15.10;99.90;;;;;;5010832;28;20200;-53
2023/09/05 00:19:49;;;;;;;3.20;2.50;;;15.00;99.90;;;;;;5016220;28;20301;-51
2023/09/05 00:22:15;;;;;;;2.83;2.63;;;14.90;99.90;;;;;;5021005;28;20678;-52
2023/09/05 00:24:44;;;;;;;2.50;2.33;;;14.80;99.90;;;;;;5023484;28;20269;-52
2023/09/05 00:27:12;;;;;;;2.90;2.60;;;14.80;99.90;;;;;;5003624;28;20343;-51
2023/09/05 00:29:39;;;;;;;2.67;2.47;;;14.70;99.90;;;;;;5023075;28;20640;-56
2023/09/05 00:32:06;;;;;;;2.50;2.10;;;14.70;99.90;;;;;;5005694;28;21731;-53
2023/09/05 00:34:36;;;;;;;2.10;1.90;;;14.70;99.90;;;;;;5022824;28;20204;-54
2023/09/05 00:37:04;;;;;;;2.60;2.40;;;14.80;99.90;;;;;;5021682;28;20310;-53
2023/09/05 00:39:31;;;;;;;3.37;2.07;;;14.90;99.90;;;;;;5028521;28;20223;-52
2023/09/05 00:42:05;;;;;;;2.50;2.30;;;14.90;99.90;;;;;;5016111;28;20198;-49
2023/09/05 00:44:32;;;;;;;2.07;1.97;;;14.80;99.90;;;;;;5020777;28;20213;-51
2023/09/05 00:47:00;;;;;;;2.47;2.27;;;14.80;99.90;;;;;;5018074;28;20743;-53
2023/09/05 00:49:28;;;;;;;3.07;2.80;;;14.90;99.90;;;;;;5016559;28;20671;-54
2023/09/05 00:51:56;;;;;;;2.23;2.03;;;14.90;99.90;;;;;;5028485;28;20273;-50
2023/09/05 00:54:23;;;;;;;2.40;2.20;;;14.90;99.90;;;;;;5025433;28;20811;-56
2023/09/05 00:56:50;;;;;;;2.70;2.37;;;14.80;99.90;;;;;;5018714;28;20227;-52
2023/09/05 00:59:19;;;;;;;2.33;2.13;;;14.80;99.90;;;;;;5009663;28;20231;-51
2023/09/05 01:01:47;;;;;;;2.13;2.03;;;14.80;99.90;;;;;;5019460;28;20266;-51
2023/09/05 01:04:14;;;;;;;2.37;2.13;;;14.70;99.90;;;;;;5011479;28;20218;-54
2023/09/05 01:06:50;;;;;;;2.40;2.20;;;14.80;99.90;;;;;;5024009;28;20668;-52
2023/09/05 01:09:26;;;;;;;2.00;1.90;;;14.70;99.90;;;;;;5021854;28;20269;-51
2023/09/05 01:11:54;;;;;;;2.23;2.13;;;14.70;99.90;;;;;;5026793;28;20199;-49
2023/09/05 01:14:22;;;;;;;2.70;2.50;;;14.60;99.90;;;;;;5009155;28;20287;-54
2023/09/05 01:16:49;;;;;;;2.23;2.03;;;14.60;99.90;;;;;;5020557;28;20220;-51
2023/09/05 01:19:17;;;;;;;2.20;2.03;;;14.60;99.90;;;;;;5017473;28;20317;-56
2023/09/05 01:21:56;;;;;;;2.63;2.47;;;14.60;99.90;;;;;;5025132;28;20204;-54
2023/09/05 01:24:25;;;;;;;2.17;2.07;;;14.60;99.90;;;;;;5031553;28;20194;-51
2023/09/05 01:26:53;;;;;;;3.30;2.50;;;14.50;99.90;;;;;;5028428;28;20219;-51
2023/09/05 01:29:26;;;;;;;2.30;2.20;;;14.50;99.90;;;;;;5006566;28;20328;-55
2023/09/05 01:31:54;;;;;;;2.30;2.10;;;14.50;99.90;;;;;;5014750;28;20208;-51
2023/09/05 01:34:21;;;;;;;2.07;1.97;;;14.50;99.90;;;;;;5023552;28;20242;-55
2023/09/05 01:36:48;;;;;;;2.33;2.13;;;14.50;99.90;;;;;;5014653;28;20243;-49
2023/09/05 01:39:15;;;;;;;2.80;2.60;;;14.50;99.90;;;;;;5022287;28;20238;-51
2023/09/05 01:41:44;;;;;;;2.57;2.40;;;14.50;99.90;;;;;;5028975;28;20184;-54
2023/09/05 01:44:10;;;;;;;2.20;2.10;;;14.50;99.90;;;;;;5008467;28;22441;-55
2023/09/05 01:46:38;;;;;;;3.23;2.50;;;14.40;99.90;;;;;;5021451;28;20295;-53
2023/09/05 01:49:05;;;;;;;4.10;2.50;;;14.40;99.90;;;;;;5015528;28;20237;-53
2023/09/05 01:51:32;;;;;;;2.10;2.00;;;14.30;99.90;;;;;;5018572;28;20231;-52
2023/09/05 01:53:59;;;;;;;2.37;2.17;;;14.30;99.90;;;;;;5026729;28;20188;-50
2023/09/05 01:56:26;;;;;;;5.27;2.63;;;14.30;99.90;;;;;;5026479;28;20591;-51
2023/09/05 01:58:54;;;;;;;2.20;2.10;;;14.30;99.90;;;;;;5019973;28;20200;-50
2023/09/05 02:01:21;;;;;;;2.60;2.30;;;14.40;99.90;;;;;;5020334;28;20211;-56
2023/09/05 02:03:48;;;;;;;2.10;1.90;;;14.40;99.90;;;;;;5018289;28;20863;-48
2023/09/05 02:06:15;;;;;;;2.50;2.30;;;14.30;99.90;;;;;;5012978;28;20223;-52
2023/09/05 02:08:42;;;;;;;10.63;2.67;;;14.30;99.90;;;;;;5028576;28;20192;-54
2023/09/05 02:11:10;;;;;;;2.10;2.00;;;14.30;99.90;;;;;;5027842;28;20319;-52
2023/09/05 02:13:37;;;;;;;2.60;2.40;;;14.30;99.90;;;;;;5036497;28;20210;-52
2023/09/05 02:16:07;;;;;;;2.40;2.20;;;14.30;99.90;;;;;;5006363;28;21064;-51
2023/09/05 02:18:34;;;;;;;2.37;2.17;;;14.20;99.90;;;;;;5034542;28;20204;-55
2023/09/05 02:21:02;;;;;;;2.43;2.23;;;14.20;99.90;;;;;;5023803;28;20705;-51
2023/09/05 02:23:29;;;;;;;2.20;2.10;;;14.10;99.90;;;;;;5019946;28;20270;-56
2023/09/05 02:25:58;;;;;;;2.73;2.43;;;14.00;99.90;;;;;;5028761;28;20227;-51
2023/09/05 02:28:25;;;;;;;2.70;2.50;;;13.90;99.90;;;;;;5030251;28;20254;-55
2023/09/05 02:30:52;;;;;;;2.70;2.50;;;13.90;99.90;;;;;;5011295;28;20196;-48
2023/09/05 02:33:20;;;;;;;2.10;2.00;;;13.80;99.90;;;;;;5026054;28;20215;-50
2023/09/05 02:35:49;;;;;;;2.50;2.30;;;13.70;99.90;;;;;;5022669;28;20726;-48
2023/09/05 02:38:16;;;;;;;4.87;2.47;;;13.70;99.90;;;;;;5017491;28;20212;-51
2023/09/05 02:40:47;;;;;;;2.57;2.30;;;13.70;99.90;;;;;;5017599;28;20974;-52
2023/09/05 02:43:14;;;;;;;2.67;2.47;;;13.80;99.90;;;;;;5027011;28;20677;-53
2023/09/05 02:45:51;;;;;;;2.70;2.50;;;13.80;99.90;;;;;;5002568;28;20310;-55
2023/09/05 02:48:18;;;;;;;2.80;2.60;;;13.80;99.90;;;;;;5024406;28;20204;-51
2023/09/05 02:50:46;;;;;;;2.57;2.37;;;13.80;99.90;;;;;;5014356;28;20957;-52
2023/09/05 02:53:13;;;;;;;3.33;2.40;;;13.80;99.90;;;;;;5026663;28;20278;-47
2023/09/05 02:55:43;;;;;;;2.67;2.40;;;13.80;99.90;;;;;;5013461;28;20212;-55
2023/09/05 02:58:11;;;;;;;3.23;2.37;;;13.90;99.90;;;;;;5023247;28;20295;-56
2023/09/05 03:00:38;;;;;;;2.73;2.53;;;13.90;99.90;;;;;;5022669;28;20208;-56
2023/09/05 03:03:05;;;;;;;2.30;2.20;;;13.90;99.90;;;;;;5007507;28;20236;-51
2023/09/05 03:05:32;;;;;;;2.90;2.60;;;13.90;99.90;;;;;;5014644;28;20218;-54
2023/09/05 03:08:01;;;;;;;2.60;2.40;;;13.80;99.90;;;;;;5026222;28;20203;-52
2023/09/05 03:10:27;;;;;;;2.40;2.30;;;13.80;99.90;;;;;;5013369;28;20196;-50
2023/09/05 03:12:54;;;;;;;3.23;2.10;;;13.80;99.90;;;;;;5025599;28;20199;-56
2023/09/05 03:15:23;;;;;;;2.57;2.40;;;13.80;99.90;;;;;;5024365;28;20220;-54
2023/09/05 03:17:50;;;;;;;2.77;2.53;;;13.90;99.90;;;;;;5003909;28;20210;-55
2023/09/05 03:20:18;;;;;;;3.50;2.50;;;13.80;99.90;;;;;;5028751;28;20227;-50
2023/09/05 03:22:45;;;;;;;2.97;2.77;;;13.80;99.90;;;;;;5019911;28;20933;-56
2023/09/05 03:25:13;;;;;;;3.00;2.80;;;13.80;99.90;;;;;;5019628;28;20220;-56
2023/09/05 03:27:40;;;;;;;2.77;2.57;;;13.80;99.90;;;;;;5020674;28;20500;-54
2023/09/05 03:30:09;;;;;;;2.67;2.47;;;13.90;99.90;;;;;;5027084;28;20196;-55
2023/09/05 03:32:35;;;;;;;2.60;2.33;;;13.80;99.90;;;;;;5002815;28;20904;-53
2023/09/05 03:35:02;;;;;;;2.83;2.63;;;13.80;99.90;;;;;;5022711;28;20200;-56
2023/09/05 03:37:29;;;;;;;2.47;2.33;;;13.70;99.90;;;;;;5018043;28;20278;-55
2023/09/05 03:39:56;;;;;;;2.87;2.67;;;13.70;99.90;;;;;;5017174;28;20400;-51
2023/09/05 03:42:25;;;;;;;2.87;2.67;;;13.70;99.90;;;;;;5031065;28;20199;-56
2023/09/05 03:44:52;;;;;;;3.20;2.90;;;13.70;99.90;;;;;;5021835;28;20192;-48
2023/09/05 03:47:19;;;;;;;2.97;2.77;;;13.60;99.90;;;;;;5026558;28;21311;-51
2023/09/05 03:49:46;;;;;;;3.23;2.90;;;13.60;99.90;;;;;;5002665;28;20597;-52
2023/09/05 03:52:12;;;;;;;3.03;2.83;;;13.70;99.90;;;;;;5019200;28;20219;-54
2023/09/05 03:54:39;;;;;;;3.03;2.83;;;13.60;99.90;;;;;;5025336;28;20203;-52
2023/09/05 03:57:06;;;;;;;3.00;2.50;;;13.60;99.90;;;;;;5014849;28;20384;-56
2023/09/05 03:59:34;;;;;;;2.90;2.70;;;13.60;99.90;;;;;;5026216;28;20204;-52
2023/09/05 04:02:01;;;;;;;2.80;2.60;;;13.60;99.90;;;;;;5022234;28;20216;-54
2023/09/05 04:04:28;;;;;;;3.37;3.07;;;13.60;99.90;;;;;;5006644;28;20207;-54
2023/09/05 04:06:54;;;;;;;3.20;3.00;;;13.60;99.90;;;;;;5020242;28;20769;-49
2023/09/05 04:09:21;;;;;;;4.70;2.87;;;13.60;99.90;;;;;;5016671;28;20208;-54
2023/09/05 04:11:48;;;;;;;3.73;2.97;;;13.70;99.90;;;;;;5013876;28;20262;-49
2023/09/05 04:14:15;;;;;;;3.00;2.70;;;13.70;99.90;;;;;;5019882;28;20196;-52
2023/09/05 04:16:43;;;;;;;2.97;2.67;;;13.70;99.90;;;;;;5009877;28;20839;-54
2023/09/05 04:19:10;;;;;;;3.10;2.80;;;13.70;99.90;;;;;;5010783;28;20200;-46
2023/09/05 04:21:39;;;;;;;3.63;3.33;;;13.60;99.90;;;;;;5010334;28;20985;-53
2023/09/05 04:24:06;;;;;;;3.30;2.70;;;13.60;99.90;;;;;;5014273;28;20214;-49
2023/09/05 04:26:34;;;;;;;4.37;2.60;;;13.60;99.90;;;;;;5017327;28;20228;-57
2023/09/05 04:29:01;;;;;;;2.83;2.63;;;13.50;99.90;;;;;;5026427;28;20282;-52
2023/09/05 04:31:27;;;;;;;2.53;2.33;;;13.40;99.90;;;;;;5011375;28;20274;-52
2023/09/05 04:33:57;;;;;;;3.13;2.40;;;13.40;99.90;;;;;;5010429;28;20291;-52
2023/09/05 04:36:25;;;;;;;2.63;2.53;;;13.50;99.90;;;;;;5013063;28;20219;-55
2023/09/05 04:38:52;;;;;;;5.70;3.07;;;13.50;99.90;;;;;;5015586;28;20276;-50
2023/09/05 04:41:20;;;;;;;4.40;3.40;;;13.50;99.90;;;;;;5021614;28;20223;-51
2023/09/05 04:43:47;;;;;;;3.63;2.80;;;13.40;99.90;;;;;;5012101;28;20644;-51
2023/09/05 04:46:14;;;;;;;3.90;2.90;;;13.50;99.90;;;;;;5031943;28;20886;-52
2023/09/05 04:48:41;;;;;;;4.73;3.17;;;13.50;99.90;;;;;;5024652;28;20783;-54
2023/09/05 04:51:09;;;;;;;3.17;2.97;;;13.50;99.90;;;;;;4997357;28;20199;-54
2023/09/05 04:53:36;;;;;;;2.80;2.60;;;13.60;99.90;;;;;;5018118;28;20212;-52
2023/09/05 04:56:03;;;;;;;4.17;3.00;;;13.60;99.90;;;;;;5014278;28;20884;-51
2023/09/05 04:58:30;;;;;;;3.33;2.90;;;13.60;99.90;;;;;;5017577;28;20212;-55
2023/09/05 05:01:02;;;;;;;3.60;3.30;;;13.60;99.90;;;;;;5011469;28;20222;-52
2023/09/05 05:03:30;;;;;;;3.73;3.43;;;13.60;99.90;;;;;;5022301;28;20614;-51
2023/09/05 05:05:57;;;;;;;3.97;3.20;;;13.60;99.90;;;;;;5012973;28;20285;-52
2023/09/05 05:08:25;;;;;;;4.00;3.60;;;13.60;99.90;;;;;;5007826;28;20740;-56
2023/09/05 05:10:52;;;;;;;3.63;3.40;;;13.60;99.90;;;;;;4998187;28;20196;-51
2023/09/05 05:13:20;;;;;;;3.40;3.10;;;13.60;99.90;;;;;;5016253;28;20289;-51
2023/09/05 05:15:47;;;;;;;3.90;3.60;;;13.60;99.90;;;;;;5020151;28;20246;-55
2023/09/05 05:18:14;;;;;;;4.07;3.77;;;13.60;99.90;;;;;;5029981;28;20195;-54
2023/09/05 05:20:41;;;;;;;4.83;4.20;;;13.60;99.90;;;;;;5018804;28;20216;-52
2023/09/05 05:23:08;;;;;;;6.63;3.93;;;13.70;99.90;;;;;;5009873;28;20254;-54
2023/09/05 05:25:37;;;;;;;3.57;3.27;;;13.70;99.90;;;;;;5015702;28;20234;-52
2023/09/05 05:28:04;;;;;;;4.43;3.90;;;13.80;99.90;;;;;;5003425;28;20322;-54
2023/09/05 05:30:35;;;;;;;4.20;3.90;;;13.80;99.90;;;;;;5019905;28;20220;-49
2023/09/05 05:33:01;;;;;;;4.07;3.67;;;13.80;99.90;;;;;;5015655;28;20354;-55
2023/09/05 05:35:28;;;;;;;4.23;3.80;;;13.80;99.90;;;;;;5023894;28;20282;-53
2023/09/05 05:37:55;;;;;;;3.57;3.27;;;13.90;99.90;;;;;;5029014;28;20343;-51
2023/09/05 05:40:22;;;;;;;4.03;3.73;;;13.90;99.90;;;;;;5008166;28;20273;-55
2023/09/05 05:42:50;;;;;;;3.87;3.57;;;13.90;99.90;;;;;;5009829;28;20215;-53
2023/09/05 05:45:17;;;;;;;6.20;4.00;;;13.90;99.90;;;;;;5019350;28;20646;-57
2023/09/05 05:47:44;;;;;;;4.40;4.00;;;14.00;99.90;;;;;;5028157;28;20662;-51
2023/09/05 05:50:10;;;;;;;4.10;3.67;;;14.00;99.90;;;;;;5035124;28;20256;-53
2023/09/05 05:52:39;;;;;;;4.40;4.00;;;14.10;99.90;;;;;;5031683;28;20208;-49
2023/09/05 05:55:07;;;;;;;4.90;4.10;;;14.20;99.90;;;;;;5016116;28;20207;-53
2023/09/05 05:57:34;;;;;;;4.83;4.37;;;14.30;99.90;;;;;;5017391;28;20215;-47
2023/09/05 06:00:05;;;;;;;5.93;3.83;;;14.30;99.90;;;;;;5004057;28;20282;-52
2023/09/05 06:02:39;;;;;;;4.70;4.30;;;14.40;99.90;;;;;;5014379;28;20962;-50
2023/09/05 06:05:07;;;;;;;4.53;4.13;;;14.50;99.90;;;;;;5015275;28;20269;-52
2023/09/05 06:07:34;;;;;;;4.90;4.30;;;14.60;99.90;;;;;;5022804;28;20195;-55
2023/09/05 06:10:00;;;;;;;4.80;4.43;;;14.70;99.90;;;;;;5020787;28;20322;-48
2023/09/05 06:12:27;;;;;;;4.67;4.27;;;14.80;99.90;;;;;;5013524;28;20188;-54
2023/09/05 06:14:54;;;;;;;7.63;4.80;;;14.80;99.90;;;;;;5017017;28;20234;-49
2023/09/05 06:17:22;;;;;;;4.50;4.10;;;14.90;99.90;;;;;;5021215;28;20282;-51
2023/09/05 06:19:49;;;;;;;5.30;4.80;;;15.00;99.90;;;;;;5035113;28;20204;-55
2023/09/05 06:22:16;;;;;;;5.13;4.73;;;15.10;99.90;;;;;;5012185;28;23394;-55
2023/09/05 06:24:42;;;;;;;4.63;4.23;;;15.20;99.90;;;;;;5035826;28;20736;-50
2023/09/05 06:27:10;;;;;;;4.80;4.37;;;15.30;99.90;;;;;;5008030;28;20814;-50
2023/09/05 06:29:37;;;;;;;5.33;4.10;;;15.40;99.90;;;;;;5011835;28;20300;-48
2023/09/05 06:32:05;;;;;;;4.93;4.07;;;15.50;99.90;;;;;;5013692;28;20278;-56
2023/09/05 06:34:33;;;;;;;5.13;4.07;;;15.50;99.90;;;;;;5017763;28;20204;-46
2023/09/05 06:37:01;;;;;;;4.80;4.40;;;15.60;99.90;;;;;;5024659;28;20610;-54
2023/09/05 06:39:28;;;;;;;4.67;4.27;;;15.70;99.90;;;;;;5011861;28;20212;-54
2023/09/05 06:41:55;;;;;;;4.87;4.47;;;15.80;99.90;;;;;;5002267;28;20232;-52
2023/09/05 06:44:30;;;;;;;3.83;3.50;;;15.90;99.90;;;;;;5003322;28;20196;-53
2023/09/05 06:46:56;;;;;;;5.32;4.10;;;16.00;99.90;;;;;;5014628;28;20449;-50
2023/09/05 06:49:23;;;;;;;4.33;3.93;;;16.10;99.90;;;;;;5000957;28;20290;-51
2023/09/05 06:51:52;;;;;;;4.30;3.63;;;16.20;99.90;;;;;;5016989;28;20378;-55
2023/09/05 06:54:19;;;;;;;5.40;4.07;;;16.20;99.90;;;;;;5016591;28;20208;-55
2023/09/05 06:56:46;;;;;;;3.90;3.50;;;16.30;99.90;;;;;;5013231;28;20239;-53
2023/09/05 06:59:17;;;;;;;4.80;4.40;;;16.40;99.90;;;;;;4997657;28;20298;-54
2023/09/05 07:01:44;;;;;;;4.40;4.00;;;16.40;99.90;;;;;;5004692;28;20694;-55
2023/09/05 07:04:11;;;;;;;3.90;3.60;;;16.60;99.90;;;;;;5016675;28;20195;-52
2023/09/05 07:06:39;;;;;;;4.33;3.77;;;16.60;99.90;;;;;;5022641;28;20216;-52
2023/09/05 07:09:07;;;;;;;4.27;3.90;;;16.80;99.90;;;;;;5012050;28;20204;-53
2023/09/05 07:11:34;;;;;;;4.20;3.90;;;16.80;99.90;;;;;;5011093;28;20274;-55
2023/09/05 07:14:01;;;;;;;4.57;3.83;;;16.90;99.90;;;;;;4998693;28;20307;-51
2023/09/05 07:16:28;;;;;;;4.20;3.80;;;17.00;99.90;;;;;;5009475;28;20224;-54
2023/09/05 07:18:55;;;;;;;7.00;4.30;;;17.10;99.90;;;;;;5019751;28;20197;-53
2023/09/05 07:21:22;;;;;;;3.47;3.17;;;17.20;99.90;;;;;;5019629;28;20752;-51
2023/09/05 07:23:48;;;;;;;6.30;3.47;;;17.30;99.90;;;;;;5017607;28;20222;-55
2023/09/05 07:26:17;;;;;;;5.30;3.97;;;17.40;99.90;;;;;;5004423;28;20235;-51
2023/09/05 07:28:46;;;;;;;4.17;3.87;;;17.40;99.90;;;;;;5004370;28;20283;-50
2023/09/05 07:31:14;;;;;;;4.17;3.87;;;17.50;99.90;;;;;;5013542;28;20533;-53
2023/09/05 07:33:41;;;;;;;4.53;3.67;;;17.60;99.90;;;;;;5020755;28;20207;-53
2023/09/05 07:36:08;;;;;;;3.93;3.63;;;17.70;99.90;;;;;;5012334;28;20362;-50
2023/09/05 07:38:35;;;;;;;3.73;3.43;;;17.90;99.90;;;;;;5020202;28;20200;-52
2023/09/05 07:41:02;;;;;;;4.53;3.23;;;18.10;99.90;;;;;;5010704;28;20223;-45
2023/09/05 07:43:32;;;;;;;5.17;3.60;;;18.20;99.90;;;;;;5000951;28;20548;-53
2023/09/05 07:45:59;;;;;;;4.10;3.57;;;18.30;99.90;;;;;;5015173;28;20615;-49
2023/09/05 07:48:26;;;;;;;4.00;3.67;;;18.40;99.90;;;;;;5007351;28;20212;-59
2023/09/05 07:51:03;;;;;;;4.33;4.03;;;18.60;99.90;;;;;;5020685;28;20282;-51
2023/09/05 07:53:31;;;;;;;3.53;3.20;;;18.80;99.90;;;;;;5018892;28;20864;-57
2023/09/05 07:55:58;;;;;;;4.10;3.00;;;18.90;99.90;;;;;;5007164;28;20221;-54
2023/09/05 07:58:26;;;;;;;5.30;3.33;;;19.00;99.90;;;;;;5010361;28;20199;-55
2023/09/05 08:00:55;;;;;;;3.70;3.40;;;19.20;99.90;;;;;;5003026;28;20215;-50
2023/09/05 08:03:22;;;;;;;3.37;3.00;;;19.30;99.90;;;;;;5014701;28;20212;-56
2023/09/05 08:05:50;;;;;;;3.50;3.00;;;19.40;99.90;;;;;;5011572;28;20846;-57
2023/09/05 08:08:18;;;;;;;4.33;3.00;;;19.50;99.90;;;;;;5013517;28;20936;-55
2023/09/05 08:10:45;;;;;;;3.40;3.00;;;19.60;99.90;;;;;;5004304;28;20332;-58
2023/09/05 08:13:13;;;;;;;3.27;2.97;;;19.60;99.90;;;;;;5014861;28;20199;-56
2023/09/05 08:15:41;;;;;;;4.43;3.10;;;19.70;99.90;;;;;;5000872;28;20216;-59
2023/09/05 08:18:10;;;;;;;6.67;2.83;;;19.90;99.90;;;;;;5016794;28;20203;-55
2023/09/05 08:20:39;;;;;;;4.43;2.83;;;20.00;99.90;;;;;;5013977;28;20199;-56
2023/09/05 08:23:06;;;;;;;3.30;3.00;;;20.10;99.90;;;;;;5019967;28;20230;-52
2023/09/05 08:25:32;;;;;;;3.20;2.70;;;20.20;99.90;;;;;;5007002;28;20285;-59
2023/09/05 08:28:00;;;;;;;2.87;2.67;;;20.30;99.90;;;;;;5018612;28;20585;-58
2023/09/05 08:30:28;;;;;;;6.83;3.30;;;20.30;99.90;;;;;;5001396;28;20214;-50
2023/09/05 08:32:56;;;;;;;3.00;2.67;;;20.40;99.90;;;;;;5014516;28;20204;-56
2023/09/05 08:35:24;;;;;;;2.60;2.40;;;20.50;99.90;;;;;;5015918;28;20220;-51
2023/09/05 08:37:52;;;;;;;4.53;3.30;;;20.60;99.90;;;;;;5009103;28;20212;-58
2023/09/05 08:40:20;;;;;;;3.20;2.47;;;20.60;99.90;;;;;;5015582;28;20211;-48
2023/09/05 08:42:50;;;;;;;3.30;2.50;;;20.70;99.90;;;;;;5010152;28;20301;-59
2023/09/05 08:45:21;;;;;;;4.20;3.00;;;20.90;99.90;;;;;;4993703;28;20306;-50
2023/09/05 08:47:48;;;;;;;4.30;3.13;;;21.00;99.90;;;;;;5012538;28;20289;-57
2023/09/05 08:50:16;;;;;;;3.37;2.80;;;21.10;99.90;;;;;;5022338;28;20249;-51
2023/09/05 08:52:47;;;;;;;4.32;2.75;;;21.10;99.90;;;;;;5008286;28;20212;-55
2023/09/05 08:55:14;;;;;;;5.07;2.90;;;21.20;99.90;;;;;;5023184;28;20195;-55
2023/09/05 08:57:45;;;;;;;4.60;2.92;;;21.40;99.90;;;;;;5011871;28;20219;-59
2023/09/05 09:00:13;;;;;;;4.10;2.67;;;21.40;99.90;;;;;;5016172;28;20208;-52
2023/09/05 09:02:40;;;;;;;2.70;2.50;;;21.50;99.90;;;;;;5004271;28;20278;-58
2023/09/05 09:05:07;;;;;;;5.43;2.38;;;21.60;99.90;;;;;;5018654;28;20200;-55
2023/09/05 09:07:35;;;;;;;4.72;2.58;;;21.70;99.90;;;;;;4999148;28;20261;-59
2023/09/05 09:10:17;;;;;;;3.20;2.63;;;21.80;99.90;;;;;;5018119;28;20238;-57
2023/09/05 09:12:44;;;;;;;2.65;2.45;;;21.90;99.90;;;;;;5005729;28;20282;-58
2023/09/05 09:15:13;;;;;;;4.32;3.28;;;21.90;99.90;;;;;;5012373;28;20210;-58
2023/09/05 09:17:41;;;;;;;5.57;3.30;;;22.00;99.90;;;;;;4996344;28;20322;-59
2023/09/05 09:20:12;;;;;;;3.90;2.92;;;22.10;99.90;;;;;;5014479;28;20200;-57
2023/09/05 09:22:38;;;;;;;4.10;2.45;;;22.10;99.90;;;;;;5011030;28;20956;-59
2023/09/05 09:25:12;;;;;;;4.00;2.65;;;22.20;99.90;;;;;;5015909;28;20254;-59
2023/09/05 09:27:39;;;;;;;3.15;2.40;;;22.30;99.90;;;;;;5015382;28;20195;-59
2023/09/05 09:30:08;;;;;;;3.72;2.22;;;22.30;99.90;;;;;;5014046;28;20728;-55
2023/09/05 09:32:35;;;;;;;4.32;2.50;;;22.40;99.90;;;;;;4996673;28;20215;-58
2023/09/05 09:35:05;;;;;;;2.90;2.70;;;22.50;99.90;;;;;;5016007;28;20585;-57
2023/09/05 09:37:32;;;;;;;3.53;2.10;;;22.60;99.90;;;;;;5022362;28;20779;-57
2023/09/05 09:39:59;;;;;;;3.65;2.33;;;22.60;99.90;;;;;;5015885;28;20203;-53
2023/09/05 09:42:28;;;;;;;2.67;2.40;;;22.70;99.90;;;;;;5007418;28;21463;-58
2023/09/05 09:44:56;;;;;;;2.75;2.55;;;22.80;99.90;;;;;;5018182;28;20208;-53
2023/09/05 09:47:23;;;;;;;2.75;2.55;;;22.90;99.90;;;;;;5011875;28;20274;-49
2023/09/05 09:49:51;;;;;;;3.25;2.28;;;22.90;99.90;;;;;;4996991;28;20213;-58
2023/09/05 09:52:20;;;;;;;3.17;2.63;;;23.00;99.90;;;;;;5010879;28;20580;-53
2023/09/05 09:54:51;;;;;;;3.10;2.40;;;23.10;99.90;;;;;;5019494;28;20204;-56
2023/09/05 09:57:24;;;;;;;2.75;2.38;;;23.10;99.90;;;;;;5020276;28;20219;-52
2023/09/05 10:00:00;;;;;;;4.90;2.50;;;23.10;99.90;;;;;;5022592;28;20207;-59
2023/09/05 10:02:29;;;;;;;3.75;1.90;;;23.30;99.90;;;;;;5010158;28;20302;-56
2023/09/05 10:04:57;;;;;;;3.55;2.30;;;23.40;99.90;;;;;;5005669;28;20301;-57
2023/09/05 10:07:26;;;;;;;3.53;2.13;;;23.50;99.90;;;;;;5015940;28;20234;-56
2023/09/05 10:09:53;;;;;;;2.20;2.00;;;23.60;99.90;;;;;;5016911;28;20200;-56
2023/09/05 10:12:23;;;;;;;4.57;2.40;;;23.60;99.90;;;;;;5012642;28;20737;-57
2023/09/05 10:14:52;;;;;;;2.30;2.00;;;23.70;99.90;;;;;;5017412;28;21078;-55
2023/09/05 10:17:21;;;;;;;2.63;2.42;;;23.70;99.90;;;;;;5010244;28;21114;-57
2023/09/05 10:19:50;;;;;;;3.45;2.20;;;23.70;99.90;;;;;;5023833;28;20279;-56
2023/09/05 10:22:18;;;;;;;2.35;1.50;;;23.90;99.90;;;;;;5000236;28;20228;-56
2023/09/05 10:24:46;;;;;;;7.60;2.28;;;24.00;99.90;;;;;;5023645;28;20211;-58
2023/09/05 10:27:13;;;;;;;3.47;2.00;;;24.10;99.90;;;;;;5009916;28;20247;-55
2023/09/05 10:29:43;;;;;;;2.95;2.30;;;24.10;99.90;;;;;;5018024;28;20200;-52
2023/09/05 10:32:14;;;;;;;2.20;2.00;;;24.20;99.90;;;;;;5014243;28;20319;-58
2023/09/05 10:34:59;;;;;;;3.65;2.03;;;24.40;99.90;;;;;;5011177;28;20284;-56
2023/09/05 10:37:39;;;;;;;5.15;2.15;;;24.50;99.90;;;;;;5004255;28;20275;-55
2023/09/05 10:40:08;;;;;;;2.67;2.10;;;24.60;99.90;;;;;;5009498;28;20220;-53
2023/09/05 10:42:36;;;;;;;3.75;2.22;;;24.70;99.90;;;;;;5020091;28;20204;-57
2023/09/05 10:45:18;;;;;;;4.65;2.08;;;24.80;99.90;;;;;;5021243;28;20200;-54
2023/09/05 10:47:47;;;;;;;2.42;2.03;;;24.90;99.90;;;;;;5017078;28;20776;-58
2023/09/05 10:50:19;;;;;;;2.38;1.70;;;24.90;99.90;;;;;;4995488;28;20227;-54
2023/09/05 10:52:49;;;;;;;4.13;2.10;;;25.10;99.90;;;;;;5006946;28;20211;-60
2023/09/05 10:55:39;;;;;;;2.05;1.85;;;25.20;99.90;;;;;;5023169;28;20200;-47
2023/09/05 10:58:38;;;;;;;2.08;1.98;;;25.20;99.90;;;;;;5024577;28;20303;-59
2023/09/05 11:01:43;;;;;;;3.95;1.90;;;25.30;99.90;;;;;;5019190;28;20291;-59
2023/09/05 11:04:19;;;;;;;2.33;2.10;;;25.40;99.90;;;;;;5020982;28;20709;-51
2023/09/05 11:06:57;;;;;;;3.10;1.60;;;25.50;99.90;;;;;;5022018;28;20227;-55
2023/09/05 11:09:25;;;;;;;2.30;2.10;;;25.50;99.90;;;;;;4997836;28;20772;-53
2023/09/05 11:11:53;;;;;;;5.40;2.20;;;25.60;99.90;;;;;;5020427;28;20208;-55
2023/09/05 11:14:34;;;;;;;2.80;2.45;;;25.70;99.90;;;;;;5021472;28;20199;-56
2023/09/05 11:17:02;;;;;;;3.83;2.22;;;25.90;99.90;;;;;;5025561;28;20216;-55
2023/09/05 11:19:37;;;;;;;2.33;1.77;;;25.90;99.90;;;;;;5017131;28;20200;-55
2023/09/05 11:22:15;;;;;;;3.50;1.80;;;25.90;99.90;;;;;;5015043;28;20753;-51
2023/09/05 11:24:47;;;;;;;4.18;1.63;;;25.90;99.90;;;;;;5008992;28;20234;-58
2023/09/05 11:27:19;;;;;;;4.13;1.83;;;26.00;99.90;;;;;;5014091;28;20303;-50
2023/09/05 11:29:46;;;;;;;1.95;1.85;;;26.10;99.90;;;;;;5025256;28;20191;-56
2023/09/05 11:32:15;;;;;;;3.33;2.17;;;26.20;99.90;;;;;;5017825;28;20612;-50
2023/09/05 11:34:45;;;;;;;3.63;2.28;;;26.20;99.80;;;;;;5019352;28;20211;-55
2023/09/05 11:37:22;;;;;;;3.53;1.90;;;26.30;99.90;;;;;;5002466;28;20346;-50
2023/09/05 11:39:51;;;;;;;2.78;2.10;;;26.50;99.90;;;;;;4999970;28;20216;-48
2023/09/05 11:42:20;;;;;;;2.75;2.28;;;26.50;99.50;;;;;;5012152;28;20722;-57
2023/09/05 11:44:47;;;;;;;2.40;1.70;;;26.50;99.20;;;;;;5016508;28;20192;-52
2023/09/05 11:47:15;;;;;;;3.60;2.10;;;26.50;99.70;;;;;;5021124;28;20225;-57
2023/09/05 11:49:42;;;;;;;2.70;2.25;;;26.60;99.90;;;;;;5012053;28;20554;-48
2023/09/05 11:52:11;;;;;;;2.28;1.95;;;26.80;99.90;;;;;;5012375;28;20339;-50
2023/09/05 11:54:39;;;;;;;2.13;1.92;;;26.80;99.20;;;;;;5003160;28;20211;-52
2023/09/05 11:57:07;;;;;;;4.75;2.10;;;26.80;99.40;;;;;;5023504;28;20227;-58
2023/09/05 11:59:34;;;;;;;3.22;1.92;;;26.80;98.80;;;;;;5017388;28;20208;-51
2023/09/05 12:02:07;;;;;;;2.35;1.70;;;26.70;99.00;;;;;;5018416;28;20205;-50
2023/09/05 12:04:34;;;;;;;1.85;1.75;;;26.80;99.10;;;;;;5024668;28;20212;-57
2023/09/05 12:07:05;;;;;;;3.08;2.00;;;26.80;99.70;;;;;;5020395;28;20280;-51
2023/09/05 12:09:34;;;;;;;1.60;1.50;;;26.90;99.30;;;;;;5009223;28;20228;-56
2023/09/05 12:12:11;;;;;;;1.80;1.58;;;27.10;99.80;;;;;;4996338;28;20951;-60
2023/09/05 12:14:48;;;;;;;2.75;1.90;;;27.20;99.90;;;;;;5008980;28;20605;-58
2023/09/05 12:17:16;;;;;;;2.95;1.90;;;27.40;98.30;;;;;;5005407;28;20220;-59
2023/09/05 12:19:45;;;;;;;2.47;1.80;;;27.50;98.10;;;;;;5018798;28;20661;-52
2023/09/05 12:22:20;;;;;;;2.63;1.60;;;27.50;98.70;;;;;;5006630;28;20208;-60
2023/09/05 12:24:49;;;;;;;1.70;1.60;;;27.50;97.30;;;;;;5003443;28;20215;-63
2023/09/05 12:27:25;;;;;;;3.05;1.70;;;27.50;97.90;;;;;;5020646;28;20225;-46
2023/09/05 12:29:55;;;;;;;4.30;1.73;;;27.60;98.90;;;;;;5013093;28;20701;-59
2023/09/05 12:32:26;;;;;;;4.50;2.20;;;27.70;99.10;;;;;;5017736;28;20318;-53
2023/09/05 12:34:53;;;;;;;2.00;1.90;;;27.80;98.50;;;;;;5022931;28;20905;-59
2023/09/05 12:37:20;;;;;;;2.53;1.52;;;27.90;97.60;;;;;;5021345;28;20308;-47
2023/09/05 12:39:50;;;;;;;3.53;1.60;;;28.00;97.80;;;;;;5019590;28;20667;-59
2023/09/05 12:42:17;;;;;;;2.85;2.25;;;28.20;97.60;;;;;;5006420;28;20200;-49
2023/09/05 12:44:44;;;;;;;1.85;1.75;;;28.20;97.50;;;;;;5010925;28;20294;-56
2023/09/05 12:47:11;;;;;;;3.05;2.00;;;28.30;97.60;;;;;;5026134;28;20218;-52
2023/09/05 12:49:38;;;;;;;2.20;2.00;;;28.30;97.40;;;;;;5023525;28;20227;-51
2023/09/05 12:52:05;;;;;;;2.20;1.83;;;28.30;97.10;;;;;;5002759;28;20747;-52
2023/09/05 12:54:32;;;;;;;2.88;1.90;;;28.30;96.80;;;;;;5015608;28;20192;-53